sensor_id;sensor_type;location;lat;lon;timestamp;P1;durP1;ratioP1;P2;durP2;ratioP2
35048;SDS011;21236;48.740;-3.446;2022-08-07T00:00:48;12.02;;;5.93;;
35048;SDS011;21236;48.740;-3.446;2022-08-07T00:03:14;11.52;;;5.90;;
35048;SDS011;21236;48.740;-3.446;2022-08-07T00:05:40;8.80;;;5.30;;
35048;SDS011;21236;48.740;-3.446;2022-08-07T00:08:06;9.50;;;5.35;;
35048;SDS011;21236;48.740;-3.446;2022-08-07T00:10:32;11.20;;;6.82;;
35048;SDS011;21236;48.740;-3.446;2022-08-07T00:12:59;11.15;;;5.72;;
35048;SDS011;21236;48.740;-3.446;2022-08-07T00:15:26;11.02;;;6.05;;
35048;SDS011;21236;48.740;-3.446;2022-08-07T00:17:52;9.00;;;6.22;;
35048;SDS011;21236;48.740;-3.446;2022-08-07T00:20:18;12.02;;;6.03;;
35048;SDS011;21236;48.740;-3.446;2022-08-07T00:22:44;10.65;;;6.60;;
35048;SDS011;21236;48.740;-3.446;2022-08-07T00:25:10;9.02;;;6.25;;
35048;SDS011;21236;48.740;-3.446;2022-08-07T00:27:36;11.63;;;6.57;;
35048;SDS011;21236;48.740;-3.446;2022-08-07T00:30:03;10.13;;;6.43;;
35048;SDS011;21236;48.740;-3.446;2022-08-07T00:32:29;15.32;;;7.68;;
35048;SDS011;21236;48.740;-3.446;2022-08-07T00:34:55;14.07;;;6.50;;
35048;SDS011;21236;48.740;-3.446;2022-08-07T00:37:21;10.32;;;6.68;;
35048;SDS011;21236;48.740;-3.446;2022-08-07T00:39:49;11.38;;;6.43;;
35048;SDS011;21236;48.740;-3.446;2022-08-07T00:42:18;12.15;;;7.00;;
35048;SDS011;21236;48.740;-3.446;2022-08-07T00:44:44;12.02;;;7.05;;
35048;SDS011;21236;48.740;-3.446;2022-08-07T00:47:11;13.73;;;6.80;;
35048;SDS011;21236;48.740;-3.446;2022-08-07T00:49:37;12.90;;;7.15;;
35048;SDS011;21236;48.740;-3.446;2022-08-07T00:52:07;11.85;;;6.93;;
35048;SDS011;21236;48.740;-3.446;2022-08-07T00:54:33;15.02;;;7.50;;
35048;SDS011;21236;48.740;-3.446;2022-08-07T00:56:59;11.07;;;6.32;;
35048;SDS011;21236;48.740;-3.446;2022-08-07T00:59:25;16.27;;;7.32;;
35048;SDS011;21236;48.740;-3.446;2022-08-07T01:01:51;12.10;;;6.18;;
35048;SDS011;21236;48.740;-3.446;2022-08-07T01:04:18;12.40;;;6.78;;
35048;SDS011;21236;48.740;-3.446;2022-08-07T01:06:44;11.27;;;6.18;;
35048;SDS011;21236;48.740;-3.446;2022-08-07T01:09:10;11.57;;;6.22;;
35048;SDS011;21236;48.740;-3.446;2022-08-07T01:11:37;15.88;;;6.05;;
35048;SDS011;21236;48.740;-3.446;2022-08-07T01:14:03;10.23;;;6.70;;
35048;SDS011;21236;48.740;-3.446;2022-08-07T01:16:29;11.32;;;6.50;;
35048;SDS011;21236;48.740;-3.446;2022-08-07T01:18:57;14.32;;;6.10;;
35048;SDS011;21236;48.740;-3.446;2022-08-07T01:21:24;12.40;;;5.63;;
35048;SDS011;21236;48.740;-3.446;2022-08-07T01:23:53;8.15;;;5.78;;
35048;SDS011;21236;48.740;-3.446;2022-08-07T01:26:20;9.48;;;6.03;;
35048;SDS011;21236;48.740;-3.446;2022-08-07T01:28:48;12.40;;;6.78;;
35048;SDS011;21236;48.740;-3.446;2022-08-07T01:31:19;11.15;;;5.97;;
35048;SDS011;21236;48.740;-3.446;2022-08-07T01:33:48;11.00;;;6.35;;
35048;SDS011;21236;48.740;-3.446;2022-08-07T01:36:14;13.40;;;6.05;;
35048;SDS011;21236;48.740;-3.446;2022-08-07T01:38:42;9.70;;;5.97;;
35048;SDS011;21236;48.740;-3.446;2022-08-07T01:41:17;9.68;;;5.93;;
35048;SDS011;21236;48.740;-3.446;2022-08-07T01:43:48;9.10;;;6.03;;
35048;SDS011;21236;48.740;-3.446;2022-08-07T01:46:14;10.57;;;6.13;;
35048;SDS011;21236;48.740;-3.446;2022-08-07T01:48:46;16.40;;;7.38;;
35048;SDS011;21236;48.740;-3.446;2022-08-07T01:51:17;9.40;;;6.22;;
35048;SDS011;21236;48.740;-3.446;2022-08-07T01:53:45;11.90;;;5.85;;
35048;SDS011;21236;48.740;-3.446;2022-08-07T01:56:23;11.45;;;6.88;;
35048;SDS011;21236;48.740;-3.446;2022-08-07T01:59:04;11.93;;;6.07;;
35048;SDS011;21236;48.740;-3.446;2022-08-07T02:01:30;13.02;;;5.90;;
35048;SDS011;21236;48.740;-3.446;2022-08-07T02:04:12;12.45;;;6.18;;
35048;SDS011;21236;48.740;-3.446;2022-08-07T02:06:46;11.13;;;5.63;;
35048;SDS011;21236;48.740;-3.446;2022-08-07T02:09:14;11.85;;;6.10;;
35048;SDS011;21236;48.740;-3.446;2022-08-07T02:11:45;9.07;;;5.38;;
35048;SDS011;21236;48.740;-3.446;2022-08-07T02:14:16;8.57;;;5.47;;
35048;SDS011;21236;48.740;-3.446;2022-08-07T02:16:43;8.85;;;5.32;;
35048;SDS011;21236;48.740;-3.446;2022-08-07T02:19:12;9.20;;;5.88;;
35048;SDS011;21236;48.740;-3.446;2022-08-07T02:21:39;13.30;;;5.95;;
35048;SDS011;21236;48.740;-3.446;2022-08-07T02:24:05;9.50;;;6.07;;
35048;SDS011;21236;48.740;-3.446;2022-08-07T02:26:32;10.43;;;5.93;;
35048;SDS011;21236;48.740;-3.446;2022-08-07T02:28:59;10.70;;;6.07;;
35048;SDS011;21236;48.740;-3.446;2022-08-07T02:31:26;10.02;;;6.07;;
35048;SDS011;21236;48.740;-3.446;2022-08-07T02:33:53;11.50;;;6.18;;
35048;SDS011;21236;48.740;-3.446;2022-08-07T02:36:21;9.63;;;6.10;;
35048;SDS011;21236;48.740;-3.446;2022-08-07T02:38:47;10.90;;;6.18;;
35048;SDS011;21236;48.740;-3.446;2022-08-07T02:41:14;14.05;;;6.80;;
35048;SDS011;21236;48.740;-3.446;2022-08-07T02:43:43;12.02;;;5.97;;
35048;SDS011;21236;48.740;-3.446;2022-08-07T02:46:13;11.00;;;7.35;;
35048;SDS011;21236;48.740;-3.446;2022-08-07T02:48:41;10.30;;;6.22;;
35048;SDS011;21236;48.740;-3.446;2022-08-07T02:51:09;8.30;;;5.47;;
35048;SDS011;21236;48.740;-3.446;2022-08-07T02:53:37;7.85;;;5.45;;
35048;SDS011;21236;48.740;-3.446;2022-08-07T02:56:08;11.73;;;5.30;;
35048;SDS011;21236;48.740;-3.446;2022-08-07T02:58:36;11.85;;;5.30;;
35048;SDS011;21236;48.740;-3.446;2022-08-07T03:01:04;10.43;;;5.38;;
35048;SDS011;21236;48.740;-3.446;2022-08-07T03:03:33;8.50;;;5.20;;
35048;SDS011;21236;48.740;-3.446;2022-08-07T03:06:00;7.53;;;5.13;;
35048;SDS011;21236;48.740;-3.446;2022-08-07T03:08:27;9.35;;;5.30;;
35048;SDS011;21236;48.740;-3.446;2022-08-07T03:10:54;10.65;;;5.30;;
35048;SDS011;21236;48.740;-3.446;2022-08-07T03:13:26;11.13;;;5.07;;
35048;SDS011;21236;48.740;-3.446;2022-08-07T03:15:53;10.55;;;5.70;;
35048;SDS011;21236;48.740;-3.446;2022-08-07T03:18:21;7.63;;;5.05;;
35048;SDS011;21236;48.740;-3.446;2022-08-07T03:20:48;12.32;;;6.05;;
35048;SDS011;21236;48.740;-3.446;2022-08-07T03:23:14;9.18;;;5.78;;
35048;SDS011;21236;48.740;-3.446;2022-08-07T03:25:41;7.80;;;4.78;;
35048;SDS011;21236;48.740;-3.446;2022-08-07T03:28:11;8.52;;;5.05;;
35048;SDS011;21236;48.740;-3.446;2022-08-07T03:30:38;7.55;;;4.70;;
35048;SDS011;21236;48.740;-3.446;2022-08-07T03:33:05;7.90;;;5.18;;
35048;SDS011;21236;48.740;-3.446;2022-08-07T03:35:33;10.27;;;5.65;;
35048;SDS011;21236;48.740;-3.446;2022-08-07T03:38:03;7.50;;;4.90;;
35048;SDS011;21236;48.740;-3.446;2022-08-07T03:40:30;9.25;;;5.70;;
35048;SDS011;21236;48.740;-3.446;2022-08-07T03:42:58;9.98;;;5.40;;
35048;SDS011;21236;48.740;-3.446;2022-08-07T03:45:25;8.52;;;5.40;;
35048;SDS011;21236;48.740;-3.446;2022-08-07T03:47:52;8.10;;;4.93;;
35048;SDS011;21236;48.740;-3.446;2022-08-07T03:50:20;7.88;;;5.15;;
35048;SDS011;21236;48.740;-3.446;2022-08-07T03:52:46;9.30;;;4.88;;
35048;SDS011;21236;48.740;-3.446;2022-08-07T03:55:14;9.30;;;4.95;;
35048;SDS011;21236;48.740;-3.446;2022-08-07T03:57:44;8.68;;;4.93;;
35048;SDS011;21236;48.740;-3.446;2022-08-07T04:00:11;8.77;;;5.35;;
35048;SDS011;21236;48.740;-3.446;2022-08-07T04:02:48;9.80;;;5.10;;
35048;SDS011;21236;48.740;-3.446;2022-08-07T04:05:23;8.65;;;6.43;;
35048;SDS011;21236;48.740;-3.446;2022-08-07T04:07:50;7.50;;;4.78;;
35048;SDS011;21236;48.740;-3.446;2022-08-07T04:10:21;7.03;;;4.70;;
35048;SDS011;21236;48.740;-3.446;2022-08-07T04:12:47;7.60;;;4.53;;
35048;SDS011;21236;48.740;-3.446;2022-08-07T04:15:14;6.97;;;3.78;;
35048;SDS011;21236;48.740;-3.446;2022-08-07T04:17:42;7.57;;;4.97;;
35048;SDS011;21236;48.740;-3.446;2022-08-07T04:20:10;8.85;;;4.43;;
35048;SDS011;21236;48.740;-3.446;2022-08-07T04:22:38;10.68;;;4.78;;
35048;SDS011;21236;48.740;-3.446;2022-08-07T04:25:05;7.45;;;4.70;;
35048;SDS011;21236;48.740;-3.446;2022-08-07T04:27:32;10.50;;;4.95;;
35048;SDS011;21236;48.740;-3.446;2022-08-07T04:29:59;9.80;;;5.25;;
35048;SDS011;21236;48.740;-3.446;2022-08-07T04:32:31;8.75;;;5.32;;
35048;SDS011;21236;48.740;-3.446;2022-08-07T04:34:58;9.32;;;5.13;;
35048;SDS011;21236;48.740;-3.446;2022-08-07T04:37:25;7.25;;;4.60;;
35048;SDS011;21236;48.740;-3.446;2022-08-07T04:39:52;8.68;;;5.18;;
35048;SDS011;21236;48.740;-3.446;2022-08-07T04:42:19;11.23;;;4.75;;
35048;SDS011;21236;48.740;-3.446;2022-08-07T04:44:45;9.27;;;4.85;;
35048;SDS011;21236;48.740;-3.446;2022-08-07T04:47:15;9.82;;;5.22;;
35048;SDS011;21236;48.740;-3.446;2022-08-07T04:50:02;8.48;;;4.90;;
35048;SDS011;21236;48.740;-3.446;2022-08-07T04:52:38;9.77;;;5.10;;
35048;SDS011;21236;48.740;-3.446;2022-08-07T04:55:21;9.93;;;4.60;;
35048;SDS011;21236;48.740;-3.446;2022-08-07T05:00:40;12.32;;;4.97;;
35048;SDS011;21236;48.740;-3.446;2022-08-07T05:05:39;8.52;;;5.25;;
35048;SDS011;21236;48.740;-3.446;2022-08-07T05:10:46;8.07;;;5.53;;
35048;SDS011;21236;48.740;-3.446;2022-08-07T05:13:17;10.15;;;4.82;;
35048;SDS011;21236;48.740;-3.446;2022-08-07T05:15:46;10.40;;;5.55;;
35048;SDS011;21236;48.740;-3.446;2022-08-07T05:18:37;17.08;;;5.18;;
35048;SDS011;21236;48.740;-3.446;2022-08-07T05:21:02;10.32;;;5.40;;
35048;SDS011;21236;48.740;-3.446;2022-08-07T05:26:00;10.52;;;4.97;;
35048;SDS011;21236;48.740;-3.446;2022-08-07T05:28:27;14.82;;;5.15;;
35048;SDS011;21236;48.740;-3.446;2022-08-07T05:30:54;9.35;;;5.35;;
35048;SDS011;21236;48.740;-3.446;2022-08-07T05:33:21;9.05;;;5.45;;
35048;SDS011;21236;48.740;-3.446;2022-08-07T05:35:48;7.07;;;4.95;;
35048;SDS011;21236;48.740;-3.446;2022-08-07T05:38:15;11.20;;;5.18;;
35048;SDS011;21236;48.740;-3.446;2022-08-07T05:40:42;8.38;;;5.10;;
35048;SDS011;21236;48.740;-3.446;2022-08-07T05:43:08;7.15;;;5.45;;
35048;SDS011;21236;48.740;-3.446;2022-08-07T05:45:34;8.82;;;5.40;;
35048;SDS011;21236;48.740;-3.446;2022-08-07T05:48:02;14.57;;;5.60;;
35048;SDS011;21236;48.740;-3.446;2022-08-07T05:50:36;9.73;;;5.65;;
35048;SDS011;21236;48.740;-3.446;2022-08-07T05:53:02;9.73;;;5.32;;
35048;SDS011;21236;48.740;-3.446;2022-08-07T05:55:29;12.27;;;5.60;;
35048;SDS011;21236;48.740;-3.446;2022-08-07T05:57:55;10.45;;;6.35;;
35048;SDS011;21236;48.740;-3.446;2022-08-07T06:00:22;10.75;;;5.20;;
35048;SDS011;21236;48.740;-3.446;2022-08-07T06:02:56;9.80;;;4.70;;
35048;SDS011;21236;48.740;-3.446;2022-08-07T06:05:25;10.63;;;5.55;;
35048;SDS011;21236;48.740;-3.446;2022-08-07T06:08:00;9.48;;;5.20;;
35048;SDS011;21236;48.740;-3.446;2022-08-07T06:10:27;7.57;;;4.75;;
35048;SDS011;21236;48.740;-3.446;2022-08-07T06:12:54;7.88;;;5.05;;
35048;SDS011;21236;48.740;-3.446;2022-08-07T06:15:20;6.90;;;5.00;;
35048;SDS011;21236;48.740;-3.446;2022-08-07T06:17:47;7.97;;;5.05;;
35048;SDS011;21236;48.740;-3.446;2022-08-07T06:20:14;8.73;;;5.53;;
35048;SDS011;21236;48.740;-3.446;2022-08-07T06:22:41;8.88;;;5.30;;
35048;SDS011;21236;48.740;-3.446;2022-08-07T06:25:24;7.90;;;4.57;;
35048;SDS011;21236;48.740;-3.446;2022-08-07T06:27:51;7.35;;;4.78;;
35048;SDS011;21236;48.740;-3.446;2022-08-07T06:30:17;10.00;;;5.95;;
35048;SDS011;21236;48.740;-3.446;2022-08-07T06:32:43;12.32;;;5.40;;
35048;SDS011;21236;48.740;-3.446;2022-08-07T06:35:09;10.15;;;5.30;;
35048;SDS011;21236;48.740;-3.446;2022-08-07T06:37:36;8.88;;;4.75;;
35048;SDS011;21236;48.740;-3.446;2022-08-07T06:40:03;9.75;;;4.82;;
35048;SDS011;21236;48.740;-3.446;2022-08-07T06:42:30;8.20;;;5.57;;
35048;SDS011;21236;48.740;-3.446;2022-08-07T06:45:10;10.27;;;6.55;;
35048;SDS011;21236;48.740;-3.446;2022-08-07T06:47:39;10.25;;;4.68;;
35048;SDS011;21236;48.740;-3.446;2022-08-07T06:50:05;10.43;;;5.35;;
35048;SDS011;21236;48.740;-3.446;2022-08-07T06:52:37;10.35;;;5.63;;
35048;SDS011;21236;48.740;-3.446;2022-08-07T06:55:30;10.20;;;5.32;;
35048;SDS011;21236;48.740;-3.446;2022-08-07T06:57:56;18.02;;;6.28;;
35048;SDS011;21236;48.740;-3.446;2022-08-07T07:00:30;10.38;;;5.43;;
35048;SDS011;21236;48.740;-3.446;2022-08-07T07:02:56;12.00;;;5.90;;
35048;SDS011;21236;48.740;-3.446;2022-08-07T07:05:23;12.85;;;5.70;;
35048;SDS011;21236;48.740;-3.446;2022-08-07T07:07:50;10.32;;;6.28;;
35048;SDS011;21236;48.740;-3.446;2022-08-07T07:10:17;14.63;;;6.25;;
35048;SDS011;21236;48.740;-3.446;2022-08-07T07:12:52;14.73;;;6.95;;
35048;SDS011;21236;48.740;-3.446;2022-08-07T07:15:24;12.80;;;7.00;;
35048;SDS011;21236;48.740;-3.446;2022-08-07T07:20:33;12.82;;;6.65;;
35048;SDS011;21236;48.740;-3.446;2022-08-07T07:23:00;19.58;;;8.05;;
35048;SDS011;21236;48.740;-3.446;2022-08-07T07:25:26;12.70;;;6.80;;
35048;SDS011;21236;48.740;-3.446;2022-08-07T07:27:57;11.30;;;7.00;;
35048;SDS011;21236;48.740;-3.446;2022-08-07T07:30:28;11.95;;;7.10;;
35048;SDS011;21236;48.740;-3.446;2022-08-07T07:32:56;15.88;;;6.50;;
35048;SDS011;21236;48.740;-3.446;2022-08-07T07:35:22;12.68;;;6.68;;
35048;SDS011;21236;48.740;-3.446;2022-08-07T07:37:49;12.02;;;6.75;;
35048;SDS011;21236;48.740;-3.446;2022-08-07T07:40:16;14.88;;;6.43;;
35048;SDS011;21236;48.740;-3.446;2022-08-07T07:42:45;9.50;;;5.95;;
35048;SDS011;21236;48.740;-3.446;2022-08-07T07:45:13;10.00;;;5.75;;
35048;SDS011;21236;48.740;-3.446;2022-08-07T07:47:40;10.00;;;4.85;;
35048;SDS011;21236;48.740;-3.446;2022-08-07T07:50:07;15.77;;;5.28;;
35048;SDS011;21236;48.740;-3.446;2022-08-07T07:52:35;11.88;;;5.90;;
35048;SDS011;21236;48.740;-3.446;2022-08-07T07:55:02;11.38;;;5.05;;
35048;SDS011;21236;48.740;-3.446;2022-08-07T07:57:28;10.15;;;5.13;;
35048;SDS011;21236;48.740;-3.446;2022-08-07T07:59:54;13.05;;;4.80;;
35048;SDS011;21236;48.740;-3.446;2022-08-07T08:02:21;10.00;;;5.10;;
35048;SDS011;21236;48.740;-3.446;2022-08-07T08:04:48;9.27;;;4.70;;
35048;SDS011;21236;48.740;-3.446;2022-08-07T08:07:15;9.63;;;5.03;;
35048;SDS011;21236;48.740;-3.446;2022-08-07T08:09:41;8.65;;;4.93;;
35048;SDS011;21236;48.740;-3.446;2022-08-07T08:12:08;12.13;;;4.95;;
35048;SDS011;21236;48.740;-3.446;2022-08-07T08:14:34;10.07;;;4.97;;
35048;SDS011;21236;48.740;-3.446;2022-08-07T08:17:00;9.95;;;5.50;;
35048;SDS011;21236;48.740;-3.446;2022-08-07T08:19:27;10.43;;;5.47;;
35048;SDS011;21236;48.740;-3.446;2022-08-07T08:21:55;14.85;;;5.35;;
35048;SDS011;21236;48.740;-3.446;2022-08-07T08:24:44;10.15;;;5.25;;
35048;SDS011;21236;48.740;-3.446;2022-08-07T08:27:32;8.55;;;4.53;;
35048;SDS011;21236;48.740;-3.446;2022-08-07T08:30:03;8.73;;;4.97;;
35048;SDS011;21236;48.740;-3.446;2022-08-07T08:32:33;9.00;;;5.50;;
35048;SDS011;21236;48.740;-3.446;2022-08-07T08:35:01;12.23;;;5.43;;
35048;SDS011;21236;48.740;-3.446;2022-08-07T08:37:28;10.63;;;5.60;;
35048;SDS011;21236;48.740;-3.446;2022-08-07T08:39:55;14.77;;;4.93;;
35048;SDS011;21236;48.740;-3.446;2022-08-07T08:45:22;8.35;;;4.78;;
35048;SDS011;21236;48.740;-3.446;2022-08-07T08:47:54;7.60;;;4.00;;
35048;SDS011;21236;48.740;-3.446;2022-08-07T08:50:29;7.45;;;4.22;;
35048;SDS011;21236;48.740;-3.446;2022-08-07T08:56:09;8.75;;;4.55;;
35048;SDS011;21236;48.740;-3.446;2022-08-07T08:58:35;10.38;;;4.10;;
35048;SDS011;21236;48.740;-3.446;2022-08-07T09:01:25;10.45;;;3.92;;
35048;SDS011;21236;48.740;-3.446;2022-08-07T09:03:55;9.85;;;4.28;;
35048;SDS011;21236;48.740;-3.446;2022-08-07T09:11:38;10.63;;;3.78;;
35048;SDS011;21236;48.740;-3.446;2022-08-07T09:29:38;9.38;;;3.40;;
35048;SDS011;21236;48.740;-3.446;2022-08-07T09:42:55;9.23;;;3.38;;
35048;SDS011;21236;48.740;-3.446;2022-08-07T09:45:31;11.15;;;3.70;;
35048;SDS011;21236;48.740;-3.446;2022-08-07T09:51:04;8.68;;;3.60;;
35048;SDS011;21236;48.740;-3.446;2022-08-07T09:53:21;6.25;;;2.63;;
35048;SDS011;21236;48.740;-3.446;2022-08-07T09:55:59;7.25;;;2.75;;
35048;SDS011;21236;48.740;-3.446;2022-08-07T09:58:41;4.53;;;2.45;;
35048;SDS011;21236;48.740;-3.446;2022-08-07T10:06:31;7.97;;;2.33;;
35048;SDS011;21236;48.740;-3.446;2022-08-07T10:27:44;5.40;;;2.55;;
35048;SDS011;21236;48.740;-3.446;2022-08-07T10:30:12;6.15;;;2.53;;
35048;SDS011;21236;48.740;-3.446;2022-08-07T10:35:23;10.07;;;3.03;;
35048;SDS011;21236;48.740;-3.446;2022-08-07T10:40:55;6.55;;;3.13;;
35048;SDS011;21236;48.740;-3.446;2022-08-07T10:43:34;9.20;;;3.08;;
35048;SDS011;21236;48.740;-3.446;2022-08-07T10:46:12;11.48;;;3.70;;
35048;SDS011;21236;48.740;-3.446;2022-08-07T10:48:48;5.45;;;3.20;;
35048;SDS011;21236;48.740;-3.446;2022-08-07T10:59:19;6.32;;;3.05;;
35048;SDS011;21236;48.740;-3.446;2022-08-07T11:02:05;10.50;;;3.25;;
35048;SDS011;21236;48.740;-3.446;2022-08-07T11:09:48;5.53;;;3.47;;
35048;SDS011;21236;48.740;-3.446;2022-08-07T11:12:22;5.45;;;3.35;;
35048;SDS011;21236;48.740;-3.446;2022-08-07T11:14:53;6.30;;;3.13;;
35048;SDS011;21236;48.740;-3.446;2022-08-07T11:17:23;8.23;;;3.58;;
35048;SDS011;21236;48.740;-3.446;2022-08-07T11:22:44;4.97;;;3.08;;
35048;SDS011;21236;48.740;-3.446;2022-08-07T11:25:18;5.78;;;3.35;;
35048;SDS011;21236;48.740;-3.446;2022-08-07T11:30:18;6.60;;;3.30;;
35048;SDS011;21236;48.740;-3.446;2022-08-07T11:32:46;4.63;;;3.10;;
35048;SDS011;21236;48.740;-3.446;2022-08-07T11:45:51;4.70;;;3.25;;
35048;SDS011;21236;48.740;-3.446;2022-08-07T11:51:12;6.53;;;3.42;;
35048;SDS011;21236;48.740;-3.446;2022-08-07T12:01:34;7.45;;;3.17;;
35048;SDS011;21236;48.740;-3.446;2022-08-07T12:09:34;7.43;;;3.47;;
35048;SDS011;21236;48.740;-3.446;2022-08-07T12:12:07;4.28;;;3.38;;
35048;SDS011;21236;48.740;-3.446;2022-08-07T12:15:09;4.82;;;2.97;;
35048;SDS011;21236;48.740;-3.446;2022-08-07T12:17:37;5.97;;;2.83;;
35048;SDS011;21236;48.740;-3.446;2022-08-07T12:20:09;5.53;;;3.70;;
35048;SDS011;21236;48.740;-3.446;2022-08-07T12:28:14;5.35;;;2.88;;
35048;SDS011;21236;48.740;-3.446;2022-08-07T12:30:43;6.43;;;3.15;;
35048;SDS011;21236;48.740;-3.446;2022-08-07T12:33:11;7.60;;;3.10;;
35048;SDS011;21236;48.740;-3.446;2022-08-07T12:35:42;12.38;;;3.67;;
35048;SDS011;21236;48.740;-3.446;2022-08-07T12:38:09;7.50;;;3.28;;
35048;SDS011;21236;48.740;-3.446;2022-08-07T12:40:37;3.92;;;2.92;;
35048;SDS011;21236;48.740;-3.446;2022-08-07T12:43:06;13.27;;;3.63;;
35048;SDS011;21236;48.740;-3.446;2022-08-07T12:48:17;5.88;;;3.55;;
35048;SDS011;21236;48.740;-3.446;2022-08-07T12:50:59;5.65;;;3.80;;
35048;SDS011;21236;48.740;-3.446;2022-08-07T12:56:11;5.95;;;3.20;;
35048;SDS011;21236;48.740;-3.446;2022-08-07T12:58:43;5.95;;;3.20;;
35048;SDS011;21236;48.740;-3.446;2022-08-07T13:22:28;8.07;;;3.50;;
35048;SDS011;21236;48.740;-3.446;2022-08-07T13:24:35;8.02;;;3.63;;
35048;SDS011;21236;48.740;-3.446;2022-08-07T13:27:15;5.68;;;3.13;;
35048;SDS011;21236;48.740;-3.446;2022-08-07T13:33:00;5.93;;;3.47;;
35048;SDS011;21236;48.740;-3.446;2022-08-07T13:35:13;4.40;;;3.50;;
35048;SDS011;21236;48.740;-3.446;2022-08-07T13:40:26;5.43;;;3.40;;
35048;SDS011;21236;48.740;-3.446;2022-08-07T13:42:57;9.48;;;3.72;;
35048;SDS011;21236;48.740;-3.446;2022-08-07T13:45:24;7.50;;;3.50;;
35048;SDS011;21236;48.740;-3.446;2022-08-07T13:47:52;5.13;;;3.30;;
35048;SDS011;21236;48.740;-3.446;2022-08-07T13:50:21;6.30;;;2.97;;
35048;SDS011;21236;48.740;-3.446;2022-08-07T13:52:48;5.57;;;3.70;;
35048;SDS011;21236;48.740;-3.446;2022-08-07T13:55:17;7.55;;;3.40;;
35048;SDS011;21236;48.740;-3.446;2022-08-07T13:57:44;5.47;;;3.50;;
35048;SDS011;21236;48.740;-3.446;2022-08-07T14:00:11;5.82;;;3.67;;
35048;SDS011;21236;48.740;-3.446;2022-08-07T14:02:37;6.00;;;3.60;;
35048;SDS011;21236;48.740;-3.446;2022-08-07T14:05:09;9.20;;;3.40;;
35048;SDS011;21236;48.740;-3.446;2022-08-07T14:07:43;5.63;;;3.42;;
35048;SDS011;21236;48.740;-3.446;2022-08-07T14:10:10;5.35;;;3.25;;
35048;SDS011;21236;48.740;-3.446;2022-08-07T14:12:39;7.35;;;3.50;;
35048;SDS011;21236;48.740;-3.446;2022-08-07T14:17:53;10.10;;;3.65;;
35048;SDS011;21236;48.740;-3.446;2022-08-07T14:20:21;5.05;;;3.10;;
35048;SDS011;21236;48.740;-3.446;2022-08-07T14:22:57;5.93;;;3.20;;
35048;SDS011;21236;48.740;-3.446;2022-08-07T14:25:25;10.18;;;3.70;;
35048;SDS011;21236;48.740;-3.446;2022-08-07T14:27:52;10.30;;;3.58;;
35048;SDS011;21236;48.740;-3.446;2022-08-07T14:30:20;4.47;;;3.38;;
35048;SDS011;21236;48.740;-3.446;2022-08-07T14:32:49;5.15;;;3.40;;
35048;SDS011;21236;48.740;-3.446;2022-08-07T14:35:20;7.77;;;3.70;;
35048;SDS011;21236;48.740;-3.446;2022-08-07T14:37:48;6.57;;;3.65;;
35048;SDS011;21236;48.740;-3.446;2022-08-07T14:40:17;9.90;;;3.47;;
35048;SDS011;21236;48.740;-3.446;2022-08-07T14:42:44;9.93;;;3.65;;
35048;SDS011;21236;48.740;-3.446;2022-08-07T14:45:11;10.93;;;3.08;;
35048;SDS011;21236;48.740;-3.446;2022-08-07T14:47:38;7.45;;;3.80;;
35048;SDS011;21236;48.740;-3.446;2022-08-07T14:50:07;5.65;;;3.15;;
35048;SDS011;21236;48.740;-3.446;2022-08-07T14:52:35;7.35;;;3.60;;
35048;SDS011;21236;48.740;-3.446;2022-08-07T14:55:02;5.47;;;3.50;;
35048;SDS011;21236;48.740;-3.446;2022-08-07T14:57:29;6.90;;;3.80;;
35048;SDS011;21236;48.740;-3.446;2022-08-07T14:59:57;4.97;;;3.38;;
35048;SDS011;21236;48.740;-3.446;2022-08-07T15:02:24;8.50;;;3.30;;
35048;SDS011;21236;48.740;-3.446;2022-08-07T15:04:51;7.72;;;3.53;;
35048;SDS011;21236;48.740;-3.446;2022-08-07T15:07:19;11.40;;;4.60;;
35048;SDS011;21236;48.740;-3.446;2022-08-07T15:09:49;4.03;;;3.05;;
35048;SDS011;21236;48.740;-3.446;2022-08-07T15:12:21;6.13;;;3.50;;
35048;SDS011;21236;48.740;-3.446;2022-08-07T15:14:52;8.60;;;3.50;;
35048;SDS011;21236;48.740;-3.446;2022-08-07T15:17:22;5.03;;;3.35;;
35048;SDS011;21236;48.740;-3.446;2022-08-07T15:19:51;6.47;;;3.55;;
35048;SDS011;21236;48.740;-3.446;2022-08-07T15:22:23;4.68;;;3.00;;
35048;SDS011;21236;48.740;-3.446;2022-08-07T15:24:49;6.75;;;3.40;;
35048;SDS011;21236;48.740;-3.446;2022-08-07T15:27:18;9.02;;;3.35;;
35048;SDS011;21236;48.740;-3.446;2022-08-07T15:29:45;6.45;;;3.35;;
35048;SDS011;21236;48.740;-3.446;2022-08-07T15:32:12;5.85;;;2.97;;
35048;SDS011;21236;48.740;-3.446;2022-08-07T15:34:47;8.65;;;3.45;;
35048;SDS011;21236;48.740;-3.446;2022-08-07T15:37:16;5.90;;;3.30;;
35048;SDS011;21236;48.740;-3.446;2022-08-07T15:39:48;12.63;;;3.67;;
35048;SDS011;21236;48.740;-3.446;2022-08-07T15:47:49;8.23;;;3.65;;
35048;SDS011;21236;48.740;-3.446;2022-08-07T15:50:19;6.25;;;3.72;;
35048;SDS011;21236;48.740;-3.446;2022-08-07T15:52:45;6.68;;;4.13;;
35048;SDS011;21236;48.740;-3.446;2022-08-07T15:55:13;5.63;;;3.53;;
35048;SDS011;21236;48.740;-3.446;2022-08-07T15:57:40;8.02;;;3.17;;
35048;SDS011;21236;48.740;-3.446;2022-08-07T16:00:09;8.48;;;4.13;;
35048;SDS011;21236;48.740;-3.446;2022-08-07T16:02:39;8.93;;;3.65;;
35048;SDS011;21236;48.740;-3.446;2022-08-07T16:05:11;6.43;;;3.70;;
35048;SDS011;21236;48.740;-3.446;2022-08-07T16:07:42;6.45;;;3.60;;
35048;SDS011;21236;48.740;-3.446;2022-08-07T16:10:16;5.40;;;3.40;;
35048;SDS011;21236;48.740;-3.446;2022-08-07T16:26:01;6.95;;;3.78;;
35048;SDS011;21236;48.740;-3.446;2022-08-07T16:28:37;9.63;;;3.63;;
35048;SDS011;21236;48.740;-3.446;2022-08-07T16:33:53;7.70;;;3.65;;
35048;SDS011;21236;48.740;-3.446;2022-08-07T16:41:38;7.20;;;3.65;;
35048;SDS011;21236;48.740;-3.446;2022-08-07T16:49:31;6.47;;;3.58;;
35048;SDS011;21236;48.740;-3.446;2022-08-07T16:59:49;7.57;;;3.17;;
35048;SDS011;21236;48.740;-3.446;2022-08-07T17:07:40;7.55;;;3.70;;
35048;SDS011;21236;48.740;-3.446;2022-08-07T17:10:12;6.65;;;3.03;;
35048;SDS011;21236;48.740;-3.446;2022-08-07T17:12:42;8.88;;;4.10;;
35048;SDS011;21236;48.740;-3.446;2022-08-07T17:17:43;9.65;;;3.58;;
35048;SDS011;21236;48.740;-3.446;2022-08-07T17:22:56;5.78;;;3.38;;
35048;SDS011;21236;48.740;-3.446;2022-08-07T17:25:25;4.85;;;3.08;;
35048;SDS011;21236;48.740;-3.446;2022-08-07T17:27:59;7.00;;;4.13;;
35048;SDS011;21236;48.740;-3.446;2022-08-07T17:30:29;7.68;;;3.58;;
35048;SDS011;21236;48.740;-3.446;2022-08-07T17:35:31;6.93;;;3.10;;
35048;SDS011;21236;48.740;-3.446;2022-08-07T17:38:00;5.72;;;3.33;;
35048;SDS011;21236;48.740;-3.446;2022-08-07T17:43:08;6.75;;;3.05;;
35048;SDS011;21236;48.740;-3.446;2022-08-07T17:45:40;6.03;;;3.47;;
35048;SDS011;21236;48.740;-3.446;2022-08-07T17:48:10;8.07;;;3.13;;
35048;SDS011;21236;48.740;-3.446;2022-08-07T17:53:11;11.05;;;3.45;;
35048;SDS011;21236;48.740;-3.446;2022-08-07T17:58:31;5.95;;;3.13;;
35048;SDS011;21236;48.740;-3.446;2022-08-07T18:01:01;5.32;;;2.92;;
35048;SDS011;21236;48.740;-3.446;2022-08-07T18:03:34;7.32;;;3.25;;
35048;SDS011;21236;48.740;-3.446;2022-08-07T18:06:07;8.05;;;3.50;;
35048;SDS011;21236;48.740;-3.446;2022-08-07T18:08:41;6.20;;;3.33;;
35048;SDS011;21236;48.740;-3.446;2022-08-07T18:13:54;7.05;;;3.08;;
35048;SDS011;21236;48.740;-3.446;2022-08-07T18:18:55;8.57;;;3.33;;
35048;SDS011;21236;48.740;-3.446;2022-08-07T18:21:34;9.48;;;3.63;;
35048;SDS011;21236;48.740;-3.446;2022-08-07T18:24:15;10.35;;;3.05;;
35048;SDS011;21236;48.740;-3.446;2022-08-07T18:29:22;5.57;;;3.22;;
35048;SDS011;21236;48.740;-3.446;2022-08-07T18:32:05;7.32;;;3.33;;
35048;SDS011;21236;48.740;-3.446;2022-08-07T18:37:23;4.45;;;2.70;;
35048;SDS011;21236;48.740;-3.446;2022-08-07T18:40:12;7.47;;;3.05;;
35048;SDS011;21236;48.740;-3.446;2022-08-07T18:45:35;10.30;;;3.10;;